sensor_id;sensor_type;location;lat;lon;timestamp;P1;durP1;ratioP1;P2;durP2;ratioP2
14688;SDS011;7432;48.728;9.154;2023-04-01T00:00:35;4.50;;;2.90;;
14688;SDS011;7432;48.728;9.154;2023-04-01T00:03:01;4.17;;;2.93;;
14688;SDS011;7432;48.728;9.154;2023-04-01T00:05:29;3.37;;;2.97;;
14688;SDS011;7432;48.728;9.154;2023-04-01T00:07:55;3.63;;;3.03;;
14688;SDS011;7432;48.728;9.154;2023-04-01T00:10:22;4.20;;;3.10;;
14688;SDS011;7432;48.728;9.154;2023-04-01T00:12:48;2.80;;;2.40;;
14688;SDS011;7432;48.728;9.154;2023-04-01T00:15:15;3.20;;;2.90;;
14688;SDS011;7432;48.728;9.154;2023-04-01T00:17:41;3.20;;;2.87;;
14688;SDS011;7432;48.728;9.154;2023-04-01T00:20:08;3.33;;;3.03;;
14688;SDS011;7432;48.728;9.154;2023-04-01T00:22:37;3.03;;;2.83;;
14688;SDS011;7432;48.728;9.154;2023-04-01T00:25:04;5.33;;;2.93;;
14688;SDS011;7432;48.728;9.154;2023-04-01T00:27:31;3.63;;;2.90;;
14688;SDS011;7432;48.728;9.154;2023-04-01T00:29:57;3.27;;;2.80;;
14688;SDS011;7432;48.728;9.154;2023-04-01T00:32:24;4.63;;;3.07;;
14688;SDS011;7432;48.728;9.154;2023-04-01T00:34:51;3.17;;;2.80;;
14688;SDS011;7432;48.728;9.154;2023-04-01T00:37:17;3.80;;;2.83;;
14688;SDS011;7432;48.728;9.154;2023-04-01T00:39:47;3.87;;;2.60;;
14688;SDS011;7432;48.728;9.154;2023-04-01T00:42:13;3.53;;;2.80;;
14688;SDS011;7432;48.728;9.154;2023-04-01T00:44:40;4.27;;;3.10;;
14688;SDS011;7432;48.728;9.154;2023-04-01T00:47:07;4.23;;;2.80;;
14688;SDS011;7432;48.728;9.154;2023-04-01T00:49:34;4.53;;;3.07;;
14688;SDS011;7432;48.728;9.154;2023-04-01T00:52:04;3.10;;;2.80;;
14688;SDS011;7432;48.728;9.154;2023-04-01T00:54:33;3.27;;;2.83;;
14688;SDS011;7432;48.728;9.154;2023-04-01T00:57:04;7.10;;;3.13;;
14688;SDS011;7432;48.728;9.154;2023-04-01T00:59:34;4.03;;;2.90;;
14688;SDS011;7432;48.728;9.154;2023-04-01T01:02:05;3.37;;;2.87;;
14688;SDS011;7432;48.728;9.154;2023-04-01T01:04:34;3.80;;;2.77;;
14688;SDS011;7432;48.728;9.154;2023-04-01T01:07:03;5.47;;;3.00;;
14688;SDS011;7432;48.728;9.154;2023-04-01T01:09:43;4.07;;;3.10;;
14688;SDS011;7432;48.728;9.154;2023-04-01T01:12:18;4.37;;;2.90;;
14688;SDS011;7432;48.728;9.154;2023-04-01T01:14:52;5.20;;;3.33;;
14688;SDS011;7432;48.728;9.154;2023-04-01T01:17:26;4.27;;;3.10;;
14688;SDS011;7432;48.728;9.154;2023-04-01T01:20:07;3.50;;;3.10;;
14688;SDS011;7432;48.728;9.154;2023-04-01T01:22:52;3.70;;;3.37;;
14688;SDS011;7432;48.728;9.154;2023-04-01T01:25:33;3.67;;;3.00;;
14688;SDS011;7432;48.728;9.154;2023-04-01T01:28:18;3.30;;;3.00;;
14688;SDS011;7432;48.728;9.154;2023-04-01T01:30:58;4.47;;;3.03;;
14688;SDS011;7432;48.728;9.154;2023-04-01T01:33:56;3.43;;;3.10;;
14688;SDS011;7432;48.728;9.154;2023-04-01T01:36:33;3.70;;;3.30;;
14688;SDS011;7432;48.728;9.154;2023-04-01T01:39:00;3.23;;;2.93;;
14688;SDS011;7432;48.728;9.154;2023-04-01T01:41:27;4.60;;;3.50;;
14688;SDS011;7432;48.728;9.154;2023-04-01T01:43:55;3.47;;;3.27;;
14688;SDS011;7432;48.728;9.154;2023-04-01T01:46:23;3.00;;;2.80;;
14688;SDS011;7432;48.728;9.154;2023-04-01T01:48:52;5.47;;;3.40;;
14688;SDS011;7432;48.728;9.154;2023-04-01T01:51:20;3.43;;;3.23;;
14688;SDS011;7432;48.728;9.154;2023-04-01T01:53:50;5.67;;;3.80;;
14688;SDS011;7432;48.728;9.154;2023-04-01T01:56:16;3.37;;;3.17;;
14688;SDS011;7432;48.728;9.154;2023-04-01T01:58:47;3.30;;;3.00;;
14688;SDS011;7432;48.728;9.154;2023-04-01T02:01:16;4.13;;;3.27;;
14688;SDS011;7432;48.728;9.154;2023-04-01T02:03:45;4.43;;;3.33;;
14688;SDS011;7432;48.728;9.154;2023-04-01T02:06:15;6.20;;;3.33;;
14688;SDS011;7432;48.728;9.154;2023-04-01T02:08:43;3.13;;;2.93;;
14688;SDS011;7432;48.728;9.154;2023-04-01T02:11:15;7.37;;;3.30;;
14688;SDS011;7432;48.728;9.154;2023-04-01T02:13:45;4.03;;;3.27;;
14688;SDS011;7432;48.728;9.154;2023-04-01T02:16:18;3.63;;;3.20;;
14688;SDS011;7432;48.728;9.154;2023-04-01T02:18:47;3.53;;;3.30;;
14688;SDS011;7432;48.728;9.154;2023-04-01T02:21:16;3.30;;;3.10;;
14688;SDS011;7432;48.728;9.154;2023-04-01T02:23:45;4.13;;;3.50;;
14688;SDS011;7432;48.728;9.154;2023-04-01T02:26:14;3.10;;;2.80;;
14688;SDS011;7432;48.728;9.154;2023-04-01T02:28:42;3.10;;;2.90;;
14688;SDS011;7432;48.728;9.154;2023-04-01T02:31:11;3.50;;;3.03;;
14688;SDS011;7432;48.728;9.154;2023-04-01T02:33:40;3.13;;;2.77;;
14688;SDS011;7432;48.728;9.154;2023-04-01T02:36:10;7.90;;;3.97;;
14688;SDS011;7432;48.728;9.154;2023-04-01T02:38:38;3.20;;;3.00;;
14688;SDS011;7432;48.728;9.154;2023-04-01T02:41:05;3.20;;;3.00;;
14688;SDS011;7432;48.728;9.154;2023-04-01T02:43:33;2.83;;;2.67;;
14688;SDS011;7432;48.728;9.154;2023-04-01T02:45:59;2.50;;;2.40;;
14688;SDS011;7432;48.728;9.154;2023-04-01T02:48:26;2.83;;;2.63;;
14688;SDS011;7432;48.728;9.154;2023-04-01T02:50:53;3.03;;;2.60;;
14688;SDS011;7432;48.728;9.154;2023-04-01T02:53:19;2.90;;;2.80;;
14688;SDS011;7432;48.728;9.154;2023-04-01T02:55:46;2.80;;;2.70;;
14688;SDS011;7432;48.728;9.154;2023-04-01T02:58:15;3.20;;;2.90;;
14688;SDS011;7432;48.728;9.154;2023-04-01T03:00:43;2.93;;;2.60;;
14688;SDS011;7432;48.728;9.154;2023-04-01T03:03:09;2.90;;;2.70;;
14688;SDS011;7432;48.728;9.154;2023-04-01T03:05:37;2.50;;;2.40;;
14688;SDS011;7432;48.728;9.154;2023-04-01T03:08:04;2.57;;;2.37;;
14688;SDS011;7432;48.728;9.154;2023-04-01T03:10:31;3.20;;;3.00;;
14688;SDS011;7432;48.728;9.154;2023-04-01T03:12:57;3.00;;;2.80;;
14688;SDS011;7432;48.728;9.154;2023-04-01T03:15:24;2.80;;;2.60;;
14688;SDS011;7432;48.728;9.154;2023-04-01T03:17:51;3.10;;;2.80;;
14688;SDS011;7432;48.728;9.154;2023-04-01T03:20:18;3.20;;;2.40;;
14688;SDS011;7432;48.728;9.154;2023-04-01T03:22:45;2.67;;;2.47;;
14688;SDS011;7432;48.728;9.154;2023-04-01T03:25:11;2.40;;;2.30;;
14688;SDS011;7432;48.728;9.154;2023-04-01T03:27:38;2.97;;;2.80;;
14688;SDS011;7432;48.728;9.154;2023-04-01T03:30:05;2.93;;;2.73;;
14688;SDS011;7432;48.728;9.154;2023-04-01T03:32:33;4.33;;;2.90;;
14688;SDS011;7432;48.728;9.154;2023-04-01T03:35:01;3.20;;;2.80;;
14688;SDS011;7432;48.728;9.154;2023-04-01T03:37:27;3.53;;;3.20;;
14688;SDS011;7432;48.728;9.154;2023-04-01T03:39:53;2.70;;;2.60;;
14688;SDS011;7432;48.728;9.154;2023-04-01T03:42:20;3.10;;;2.90;;
14688;SDS011;7432;48.728;9.154;2023-04-01T03:44:46;2.83;;;2.63;;
14688;SDS011;7432;48.728;9.154;2023-04-01T03:47:13;2.97;;;2.77;;
14688;SDS011;7432;48.728;9.154;2023-04-01T03:49:39;3.30;;;3.07;;
14688;SDS011;7432;48.728;9.154;2023-04-01T03:52:09;3.17;;;2.90;;
14688;SDS011;7432;48.728;9.154;2023-04-01T03:54:36;2.63;;;2.53;;
14688;SDS011;7432;48.728;9.154;2023-04-01T03:57:03;3.33;;;2.63;;
14688;SDS011;7432;48.728;9.154;2023-04-01T03:59:29;3.40;;;3.10;;
14688;SDS011;7432;48.728;9.154;2023-04-01T04:01:55;3.10;;;2.90;;
14688;SDS011;7432;48.728;9.154;2023-04-01T04:04:22;2.97;;;2.77;;
14688;SDS011;7432;48.728;9.154;2023-04-01T04:06:48;2.80;;;2.60;;
14688;SDS011;7432;48.728;9.154;2023-04-01T04:09:16;3.37;;;3.17;;
14688;SDS011;7432;48.728;9.154;2023-04-01T04:11:43;3.00;;;2.80;;
14688;SDS011;7432;48.728;9.154;2023-04-01T04:14:09;2.97;;;2.67;;
14688;SDS011;7432;48.728;9.154;2023-04-01T04:16:36;2.87;;;2.60;;
14688;SDS011;7432;48.728;9.154;2023-04-01T04:19:02;2.87;;;2.60;;
14688;SDS011;7432;48.728;9.154;2023-04-01T04:21:29;2.67;;;2.57;;
14688;SDS011;7432;48.728;9.154;2023-04-01T04:23:55;3.60;;;2.77;;
14688;SDS011;7432;48.728;9.154;2023-04-01T04:26:23;2.50;;;2.30;;
14688;SDS011;7432;48.728;9.154;2023-04-01T04:28:50;2.60;;;2.50;;
14688;SDS011;7432;48.728;9.154;2023-04-01T04:31:18;2.87;;;2.77;;
14688;SDS011;7432;48.728;9.154;2023-04-01T04:33:46;3.10;;;2.90;;
14688;SDS011;7432;48.728;9.154;2023-04-01T04:36:12;3.00;;;2.80;;
14688;SDS011;7432;48.728;9.154;2023-04-01T04:38:39;3.07;;;2.87;;
14688;SDS011;7432;48.728;9.154;2023-04-01T04:41:08;3.53;;;2.70;;
14688;SDS011;7432;48.728;9.154;2023-04-01T04:43:36;3.37;;;3.17;;
14688;SDS011;7432;48.728;9.154;2023-04-01T04:46:04;3.07;;;2.87;;
14688;SDS011;7432;48.728;9.154;2023-04-01T04:48:31;3.20;;;3.10;;
14688;SDS011;7432;48.728;9.154;2023-04-01T04:50:57;3.10;;;2.80;;
14688;SDS011;7432;48.728;9.154;2023-04-01T04:53:23;2.90;;;2.70;;
14688;SDS011;7432;48.728;9.154;2023-04-01T04:55:50;3.37;;;3.17;;
14688;SDS011;7432;48.728;9.154;2023-04-01T04:58:17;3.20;;;2.90;;
14688;SDS011;7432;48.728;9.154;2023-04-01T05:00:45;3.10;;;2.87;;
14688;SDS011;7432;48.728;9.154;2023-04-01T05:03:12;3.27;;;3.07;;
14688;SDS011;7432;48.728;9.154;2023-04-01T05:05:39;3.47;;;3.00;;
14688;SDS011;7432;48.728;9.154;2023-04-01T05:08:13;3.90;;;3.60;;
14688;SDS011;7432;48.728;9.154;2023-04-01T05:10:40;2.90;;;2.70;;
14688;SDS011;7432;48.728;9.154;2023-04-01T05:13:06;3.07;;;2.87;;
14688;SDS011;7432;48.728;9.154;2023-04-01T05:15:33;3.27;;;2.87;;
14688;SDS011;7432;48.728;9.154;2023-04-01T05:18:00;3.73;;;3.43;;
14688;SDS011;7432;48.728;9.154;2023-04-01T05:20:27;3.67;;;3.20;;
14688;SDS011;7432;48.728;9.154;2023-04-01T05:22:55;5.77;;;3.27;;
14688;SDS011;7432;48.728;9.154;2023-04-01T05:25:22;5.53;;;3.50;;
14688;SDS011;7432;48.728;9.154;2023-04-01T05:27:48;3.27;;;3.07;;
14688;SDS011;7432;48.728;9.154;2023-04-01T05:30:15;4.17;;;3.53;;
14688;SDS011;7432;48.728;9.154;2023-04-01T05:32:42;3.60;;;3.23;;
14688;SDS011;7432;48.728;9.154;2023-04-01T05:35:11;3.50;;;3.20;;
14688;SDS011;7432;48.728;9.154;2023-04-01T05:37:37;3.77;;;3.47;;
14688;SDS011;7432;48.728;9.154;2023-04-01T05:40:04;4.83;;;3.47;;
14688;SDS011;7432;48.728;9.154;2023-04-01T05:42:32;3.60;;;3.40;;
14688;SDS011;7432;48.728;9.154;2023-04-01T05:44:59;3.67;;;3.10;;
14688;SDS011;7432;48.728;9.154;2023-04-01T05:47:25;4.27;;;3.20;;
14688;SDS011;7432;48.728;9.154;2023-04-01T05:49:51;4.87;;;2.93;;
14688;SDS011;7432;48.728;9.154;2023-04-01T05:52:19;3.30;;;3.10;;
14688;SDS011;7432;48.728;9.154;2023-04-01T05:54:46;4.03;;;3.30;;
14688;SDS011;7432;48.728;9.154;2023-04-01T05:57:12;4.60;;;2.97;;
14688;SDS011;7432;48.728;9.154;2023-04-01T05:59:38;3.57;;;3.27;;
14688;SDS011;7432;48.728;9.154;2023-04-01T06:02:05;3.30;;;3.00;;
14688;SDS011;7432;48.728;9.154;2023-04-01T06:04:32;4.10;;;3.70;;
14688;SDS011;7432;48.728;9.154;2023-04-01T06:07:05;3.13;;;2.90;;
14688;SDS011;7432;48.728;9.154;2023-04-01T06:09:37;4.80;;;3.60;;
14688;SDS011;7432;48.728;9.154;2023-04-01T06:12:09;4.23;;;3.10;;
14688;SDS011;7432;48.728;9.154;2023-04-01T06:14:56;3.70;;;3.40;;
14688;SDS011;7432;48.728;9.154;2023-04-01T06:17:41;3.70;;;3.40;;
14688;SDS011;7432;48.728;9.154;2023-04-01T06:20:18;4.10;;;3.77;;
14688;SDS011;7432;48.728;9.154;2023-04-01T06:22:58;4.30;;;3.63;;
14688;SDS011;7432;48.728;9.154;2023-04-01T06:25:40;3.97;;;3.27;;
14688;SDS011;7432;48.728;9.154;2023-04-01T06:28:49;3.97;;;3.67;;
14688;SDS011;7432;48.728;9.154;2023-04-01T06:31:33;3.60;;;3.40;;
14688;SDS011;7432;48.728;9.154;2023-04-01T06:37:20;4.10;;;3.70;;
14688;SDS011;7432;48.728;9.154;2023-04-01T06:40:04;3.90;;;3.63;;
14688;SDS011;7432;48.728;9.154;2023-04-01T06:42:47;3.40;;;3.20;;
14688;SDS011;7432;48.728;9.154;2023-04-01T06:45:26;4.17;;;3.87;;
14688;SDS011;7432;48.728;9.154;2023-04-01T06:48:03;3.83;;;3.47;;
14688;SDS011;7432;48.728;9.154;2023-04-01T06:50:48;3.80;;;3.50;;
14688;SDS011;7432;48.728;9.154;2023-04-01T06:53:25;4.00;;;3.70;;
14688;SDS011;7432;48.728;9.154;2023-04-01T06:55:59;3.80;;;3.40;;
14688;SDS011;7432;48.728;9.154;2023-04-01T06:58:34;4.53;;;3.43;;
14688;SDS011;7432;48.728;9.154;2023-04-01T07:01:03;3.47;;;3.17;;
14688;SDS011;7432;48.728;9.154;2023-04-01T07:03:33;3.80;;;3.50;;
14688;SDS011;7432;48.728;9.154;2023-04-01T07:06:05;3.37;;;3.17;;
14688;SDS011;7432;48.728;9.154;2023-04-01T07:08:33;3.60;;;3.40;;
14688;SDS011;7432;48.728;9.154;2023-04-01T07:11:03;4.47;;;3.13;;
14688;SDS011;7432;48.728;9.154;2023-04-01T07:13:31;3.73;;;3.53;;
14688;SDS011;7432;48.728;9.154;2023-04-01T07:16:07;4.03;;;3.47;;
14688;SDS011;7432;48.728;9.154;2023-04-01T07:18:40;5.10;;;3.83;;
14688;SDS011;7432;48.728;9.154;2023-04-01T07:21:20;3.70;;;3.40;;
14688;SDS011;7432;48.728;9.154;2023-04-01T07:23:51;4.03;;;3.33;;
14688;SDS011;7432;48.728;9.154;2023-04-01T07:26:21;3.87;;;3.40;;
14688;SDS011;7432;48.728;9.154;2023-04-01T07:28:49;4.03;;;3.73;;
14688;SDS011;7432;48.728;9.154;2023-04-01T07:31:20;3.70;;;3.50;;
14688;SDS011;7432;48.728;9.154;2023-04-01T07:33:59;3.20;;;3.00;;
14688;SDS011;7432;48.728;9.154;2023-04-01T07:36:36;3.53;;;3.23;;
14688;SDS011;7432;48.728;9.154;2023-04-01T07:39:10;3.80;;;3.50;;
14688;SDS011;7432;48.728;9.154;2023-04-01T07:41:49;4.93;;;3.27;;
14688;SDS011;7432;48.728;9.154;2023-04-01T07:44:25;3.63;;;3.43;;
14688;SDS011;7432;48.728;9.154;2023-04-01T07:49:52;3.57;;;3.27;;
14688;SDS011;7432;48.728;9.154;2023-04-01T07:52:30;3.60;;;3.33;;
14688;SDS011;7432;48.728;9.154;2023-04-01T07:55:02;3.63;;;3.33;;
14688;SDS011;7432;48.728;9.154;2023-04-01T07:57:37;3.80;;;3.60;;
14688;SDS011;7432;48.728;9.154;2023-04-01T08:00:11;3.30;;;3.10;;
14688;SDS011;7432;48.728;9.154;2023-04-01T08:02:45;4.00;;;3.70;;
14688;SDS011;7432;48.728;9.154;2023-04-01T08:05:26;3.83;;;3.53;;
14688;SDS011;7432;48.728;9.154;2023-04-01T08:07:56;3.23;;;3.03;;
14688;SDS011;7432;48.728;9.154;2023-04-01T08:10:32;3.80;;;3.57;;
14688;SDS011;7432;48.728;9.154;2023-04-01T08:13:06;4.77;;;3.40;;
14688;SDS011;7432;48.728;9.154;2023-04-01T08:15:45;4.00;;;3.67;;
14688;SDS011;7432;48.728;9.154;2023-04-01T08:18:19;5.17;;;4.17;;
14688;SDS011;7432;48.728;9.154;2023-04-01T08:20:56;3.87;;;3.50;;
14688;SDS011;7432;48.728;9.154;2023-04-01T08:23:26;3.90;;;3.60;;
14688;SDS011;7432;48.728;9.154;2023-04-01T08:25:56;3.90;;;3.70;;
14688;SDS011;7432;48.728;9.154;2023-04-01T08:28:29;3.57;;;3.27;;
14688;SDS011;7432;48.728;9.154;2023-04-01T08:31:02;4.10;;;3.70;;
14688;SDS011;7432;48.728;9.154;2023-04-01T08:33:32;3.90;;;3.50;;
14688;SDS011;7432;48.728;9.154;2023-04-01T08:36:01;3.90;;;3.60;;
14688;SDS011;7432;48.728;9.154;2023-04-01T08:38:32;3.73;;;3.43;;
14688;SDS011;7432;48.728;9.154;2023-04-01T08:41:16;3.60;;;3.40;;
14688;SDS011;7432;48.728;9.154;2023-04-01T08:44:04;3.83;;;3.53;;
14688;SDS011;7432;48.728;9.154;2023-04-01T08:46:54;3.97;;;3.53;;
14688;SDS011;7432;48.728;9.154;2023-04-01T08:49:36;3.23;;;3.03;;
14688;SDS011;7432;48.728;9.154;2023-04-01T08:52:27;3.60;;;3.40;;
14688;SDS011;7432;48.728;9.154;2023-04-01T08:58:16;3.33;;;3.13;;
14688;SDS011;7432;48.728;9.154;2023-04-01T09:00:56;3.13;;;3.03;;
14688;SDS011;7432;48.728;9.154;2023-04-01T09:03:46;3.60;;;3.37;;
14688;SDS011;7432;48.728;9.154;2023-04-01T09:06:31;3.70;;;3.40;;
14688;SDS011;7432;48.728;9.154;2023-04-01T09:12:25;2.70;;;2.50;;
14688;SDS011;7432;48.728;9.154;2023-04-01T09:15:19;3.37;;;2.90;;
14688;SDS011;7432;48.728;9.154;2023-04-01T09:21:06;3.40;;;3.10;;
14688;SDS011;7432;48.728;9.154;2023-04-01T09:24:06;2.90;;;2.70;;
14688;SDS011;7432;48.728;9.154;2023-04-01T09:27:00;3.37;;;3.10;;
14688;SDS011;7432;48.728;9.154;2023-04-01T09:29:33;3.43;;;3.10;;
14688;SDS011;7432;48.728;9.154;2023-04-01T09:32:18;3.30;;;3.10;;
14688;SDS011;7432;48.728;9.154;2023-04-01T09:35:00;3.40;;;3.20;;
14688;SDS011;7432;48.728;9.154;2023-04-01T09:37:48;3.37;;;3.17;;
14688;SDS011;7432;48.728;9.154;2023-04-01T09:40:21;3.60;;;3.37;;
14688;SDS011;7432;48.728;9.154;2023-04-01T09:43:03;3.20;;;3.00;;
14688;SDS011;7432;48.728;9.154;2023-04-01T09:45:44;3.40;;;3.20;;
14688;SDS011;7432;48.728;9.154;2023-04-01T09:48:21;3.27;;;3.10;;
14688;SDS011;7432;48.728;9.154;2023-04-01T09:51:17;3.27;;;3.17;;
14688;SDS011;7432;48.728;9.154;2023-04-01T09:53:59;3.43;;;3.23;;
14688;SDS011;7432;48.728;9.154;2023-04-01T09:56:40;3.47;;;3.27;;
14688;SDS011;7432;48.728;9.154;2023-04-01T09:59:47;3.67;;;3.37;;
14688;SDS011;7432;48.728;9.154;2023-04-01T10:02:44;3.50;;;3.30;;
14688;SDS011;7432;48.728;9.154;2023-04-01T10:08:31;3.43;;;3.13;;
14688;SDS011;7432;48.728;9.154;2023-04-01T10:11:37;2.90;;;2.80;;
14688;SDS011;7432;48.728;9.154;2023-04-01T10:14:30;3.20;;;3.10;;
14688;SDS011;7432;48.728;9.154;2023-04-01T10:17:19;2.70;;;2.60;;
14688;SDS011;7432;48.728;9.154;2023-04-01T10:20:16;3.00;;;2.80;;
14688;SDS011;7432;48.728;9.154;2023-04-01T10:23:01;3.00;;;2.90;;
14688;SDS011;7432;48.728;9.154;2023-04-01T10:25:42;3.10;;;2.90;;
14688;SDS011;7432;48.728;9.154;2023-04-01T10:28:44;3.30;;;3.10;;
14688;SDS011;7432;48.728;9.154;2023-04-01T10:31:34;2.90;;;2.80;;
14688;SDS011;7432;48.728;9.154;2023-04-01T10:34:27;3.10;;;3.00;;
14688;SDS011;7432;48.728;9.154;2023-04-01T10:37:16;2.80;;;2.70;;
14688;SDS011;7432;48.728;9.154;2023-04-01T10:40:12;3.50;;;3.30;;
14688;SDS011;7432;48.728;9.154;2023-04-01T10:43:11;3.67;;;3.47;;
14688;SDS011;7432;48.728;9.154;2023-04-01T10:46:08;3.47;;;3.27;;
14688;SDS011;7432;48.728;9.154;2023-04-01T10:48:52;3.23;;;3.13;;
14688;SDS011;7432;48.728;9.154;2023-04-01T10:54:36;3.50;;;3.40;;
14688;SDS011;7432;48.728;9.154;2023-04-01T10:57:15;3.30;;;3.20;;
14688;SDS011;7432;48.728;9.154;2023-04-01T11:00:05;3.27;;;3.17;;
14688;SDS011;7432;48.728;9.154;2023-04-01T11:12:17;3.53;;;3.33;;
14688;SDS011;7432;48.728;9.154;2023-04-01T11:15:10;3.53;;;3.40;;
14688;SDS011;7432;48.728;9.154;2023-04-01T11:21:27;3.37;;;3.27;;
14688;SDS011;7432;48.728;9.154;2023-04-01T11:27:37;4.10;;;3.80;;
14688;SDS011;7432;48.728;9.154;2023-04-01T11:30:20;4.00;;;3.80;;
14688;SDS011;7432;48.728;9.154;2023-04-01T11:32:56;4.27;;;4.07;;
14688;SDS011;7432;48.728;9.154;2023-04-01T11:35:52;4.00;;;3.80;;
14688;SDS011;7432;48.728;9.154;2023-04-01T11:38:31;4.30;;;3.90;;
14688;SDS011;7432;48.728;9.154;2023-04-01T11:41:14;4.20;;;3.97;;
14688;SDS011;7432;48.728;9.154;2023-04-01T11:43:53;3.87;;;3.67;;
14688;SDS011;7432;48.728;9.154;2023-04-01T11:46:31;3.80;;;3.70;;
14688;SDS011;7432;48.728;9.154;2023-04-01T11:49:16;3.80;;;3.70;;
14688;SDS011;7432;48.728;9.154;2023-04-01T11:51:59;3.80;;;3.60;;
14688;SDS011;7432;48.728;9.154;2023-04-01T11:54:42;4.17;;;3.97;;
14688;SDS011;7432;48.728;9.154;2023-04-01T11:57:28;3.50;;;3.40;;
14688;SDS011;7432;48.728;9.154;2023-04-01T12:00:19;3.07;;;2.97;;
14688;SDS011;7432;48.728;9.154;2023-04-01T12:03:04;3.80;;;3.60;;
14688;SDS011;7432;48.728;9.154;2023-04-01T12:05:43;3.60;;;3.40;;
14688;SDS011;7432;48.728;9.154;2023-04-01T12:08:21;3.03;;;2.93;;
14688;SDS011;7432;48.728;9.154;2023-04-01T12:10:59;4.00;;;3.80;;
14688;SDS011;7432;48.728;9.154;2023-04-01T12:13:36;3.23;;;3.13;;
14688;SDS011;7432;48.728;9.154;2023-04-01T12:16:15;3.67;;;3.57;;
14688;SDS011;7432;48.728;9.154;2023-04-01T12:18:50;3.70;;;3.50;;
14688;SDS011;7432;48.728;9.154;2023-04-01T12:21:24;3.80;;;3.70;;
14688;SDS011;7432;48.728;9.154;2023-04-01T12:23:59;3.50;;;3.40;;
14688;SDS011;7432;48.728;9.154;2023-04-01T12:26:46;3.83;;;3.63;;
14688;SDS011;7432;48.728;9.154;2023-04-01T12:29:35;3.63;;;3.53;;
14688;SDS011;7432;48.728;9.154;2023-04-01T12:32:15;3.50;;;3.40;;
14688;SDS011;7432;48.728;9.154;2023-04-01T12:34:53;3.43;;;3.33;;
14688;SDS011;7432;48.728;9.154;2023-04-01T12:37:29;3.90;;;3.70;;
14688;SDS011;7432;48.728;9.154;2023-04-01T12:40:18;3.57;;;3.47;;
14688;SDS011;7432;48.728;9.154;2023-04-01T12:43:02;3.70;;;3.60;;
14688;SDS011;7432;48.728;9.154;2023-04-01T12:45:42;3.80;;;3.60;;
14688;SDS011;7432;48.728;9.154;2023-04-01T12:48:34;3.33;;;3.23;;
14688;SDS011;7432;48.728;9.154;2023-04-01T12:54:19;3.57;;;3.37;;
14688;SDS011;7432;48.728;9.154;2023-04-01T12:57:07;3.20;;;3.10;;
14688;SDS011;7432;48.728;9.154;2023-04-01T12:59:51;3.77;;;3.57;;
14688;SDS011;7432;48.728;9.154;2023-04-01T13:02:36;3.90;;;3.80;;
14688;SDS011;7432;48.728;9.154;2023-04-01T13:08:18;3.90;;;3.70;;
14688;SDS011;7432;48.728;9.154;2023-04-01T13:11:00;3.40;;;3.30;;
14688;SDS011;7432;48.728;9.154;2023-04-01T13:13:40;3.73;;;3.50;;
14688;SDS011;7432;48.728;9.154;2023-04-01T13:16:22;3.43;;;3.33;;
14688;SDS011;7432;48.728;9.154;2023-04-01T13:18:54;3.90;;;3.70;;
14688;SDS011;7432;48.728;9.154;2023-04-01T13:21:28;3.37;;;3.27;;
14688;SDS011;7432;48.728;9.154;2023-04-01T13:24:06;3.57;;;3.47;;
14688;SDS011;7432;48.728;9.154;2023-04-01T13:26:39;3.77;;;2.70;;
14688;SDS011;7432;48.728;9.154;2023-04-01T13:29:14;4.20;;;4.00;;
14688;SDS011;7432;48.728;9.154;2023-04-01T13:31:49;3.73;;;3.53;;
14688;SDS011;7432;48.728;9.154;2023-04-01T13:34:33;3.50;;;3.40;;
14688;SDS011;7432;48.728;9.154;2023-04-01T13:37:10;3.67;;;3.53;;
14688;SDS011;7432;48.728;9.154;2023-04-01T13:39:47;3.50;;;3.40;;
14688;SDS011;7432;48.728;9.154;2023-04-01T13:42:23;3.67;;;3.53;;
14688;SDS011;7432;48.728;9.154;2023-04-01T13:44:54;3.80;;;3.60;;
14688;SDS011;7432;48.728;9.154;2023-04-01T13:47:39;3.60;;;3.40;;
14688;SDS011;7432;48.728;9.154;2023-04-01T13:53:22;3.97;;;3.77;;
14688;SDS011;7432;48.728;9.154;2023-04-01T13:56:04;3.73;;;3.53;;
14688;SDS011;7432;48.728;9.154;2023-04-01T13:58:45;3.70;;;3.57;;
14688;SDS011;7432;48.728;9.154;2023-04-01T14:01:23;4.13;;;3.93;;
14688;SDS011;7432;48.728;9.154;2023-04-01T14:04:03;4.10;;;3.90;;
14688;SDS011;7432;48.728;9.154;2023-04-01T14:06:49;3.90;;;3.70;;
14688;SDS011;7432;48.728;9.154;2023-04-01T14:09:28;4.30;;;4.10;;
14688;SDS011;7432;48.728;9.154;2023-04-01T14:12:27;4.23;;;4.03;;
14688;SDS011;7432;48.728;9.154;2023-04-01T14:18:27;3.90;;;3.70;;
14688;SDS011;7432;48.728;9.154;2023-04-01T14:21:09;4.07;;;3.87;;
14688;SDS011;7432;48.728;9.154;2023-04-01T14:23:50;3.83;;;3.63;;
14688;SDS011;7432;48.728;9.154;2023-04-01T14:29:29;4.07;;;3.87;;
14688;SDS011;7432;48.728;9.154;2023-04-01T14:32:08;3.77;;;3.57;;
14688;SDS011;7432;48.728;9.154;2023-04-01T14:34:51;4.20;;;4.00;;
14688;SDS011;7432;48.728;9.154;2023-04-01T14:37:31;3.90;;;3.70;;
14688;SDS011;7432;48.728;9.154;2023-04-01T14:40:19;4.20;;;4.00;;
14688;SDS011;7432;48.728;9.154;2023-04-01T14:43:07;3.70;;;3.60;;
14688;SDS011;7432;48.728;9.154;2023-04-01T14:45:44;4.00;;;3.80;;
14688;SDS011;7432;48.728;9.154;2023-04-01T14:48:21;3.83;;;3.63;;
14688;SDS011;7432;48.728;9.154;2023-04-01T14:50:55;3.90;;;3.70;;
14688;SDS011;7432;48.728;9.154;2023-04-01T14:53:30;4.07;;;3.87;;
14688;SDS011;7432;48.728;9.154;2023-04-01T14:56:03;3.53;;;3.43;;
14688;SDS011;7432;48.728;9.154;2023-04-01T14:58:39;3.80;;;3.60;;
14688;SDS011;7432;48.728;9.154;2023-04-01T15:01:12;4.00;;;3.80;;
14688;SDS011;7432;48.728;9.154;2023-04-01T15:03:48;4.00;;;3.80;;
14688;SDS011;7432;48.728;9.154;2023-04-01T15:06:35;4.00;;;3.80;;
14688;SDS011;7432;48.728;9.154;2023-04-01T15:09:16;3.80;;;3.60;;
14688;SDS011;7432;48.728;9.154;2023-04-01T15:11:49;3.73;;;3.60;;
14688;SDS011;7432;48.728;9.154;2023-04-01T15:14:30;3.90;;;3.70;;
14688;SDS011;7432;48.728;9.154;2023-04-01T15:17:18;3.83;;;3.63;;
14688;SDS011;7432;48.728;9.154;2023-04-01T15:19:58;4.50;;;4.30;;
14688;SDS011;7432;48.728;9.154;2023-04-01T15:22:45;3.87;;;3.67;;
14688;SDS011;7432;48.728;9.154;2023-04-01T15:25:24;3.60;;;3.40;;
14688;SDS011;7432;48.728;9.154;2023-04-01T15:28:02;3.83;;;3.63;;
14688;SDS011;7432;48.728;9.154;2023-04-01T15:30:38;3.93;;;3.73;;
14688;SDS011;7432;48.728;9.154;2023-04-01T15:33:20;4.30;;;4.10;;
14688;SDS011;7432;48.728;9.154;2023-04-01T15:35:57;4.43;;;4.23;;
14688;SDS011;7432;48.728;9.154;2023-04-01T15:38:33;4.43;;;4.13;;
14688;SDS011;7432;48.728;9.154;2023-04-01T15:41:10;4.33;;;4.13;;
14688;SDS011;7432;48.728;9.154;2023-04-01T15:43:41;4.50;;;4.30;;
14688;SDS011;7432;48.728;9.154;2023-04-01T15:49:20;4.87;;;4.60;;
14688;SDS011;7432;48.728;9.154;2023-04-01T15:51:57;4.40;;;4.20;;
14688;SDS011;7432;48.728;9.154;2023-04-01T15:54:32;4.10;;;3.90;;
14688;SDS011;7432;48.728;9.154;2023-04-01T15:57:18;4.20;;;4.00;;
14688;SDS011;7432;48.728;9.154;2023-04-01T16:00:00;4.90;;;4.60;;
14688;SDS011;7432;48.728;9.154;2023-04-01T16:02:36;4.20;;;4.00;;
14688;SDS011;7432;48.728;9.154;2023-04-01T16:05:11;4.60;;;4.30;;
14688;SDS011;7432;48.728;9.154;2023-04-01T16:07:55;4.60;;;4.40;;
14688;SDS011;7432;48.728;9.154;2023-04-01T16:10:37;4.07;;;3.87;;
14688;SDS011;7432;48.728;9.154;2023-04-01T16:13:17;4.20;;;3.83;;
14688;SDS011;7432;48.728;9.154;2023-04-01T16:15:55;3.37;;;3.27;;
14688;SDS011;7432;48.728;9.154;2023-04-01T16:18:37;3.97;;;3.77;;
14688;SDS011;7432;48.728;9.154;2023-04-01T16:21:21;3.57;;;3.47;;
14688;SDS011;7432;48.728;9.154;2023-04-01T16:24:00;4.00;;;3.80;;
14688;SDS011;7432;48.728;9.154;2023-04-01T16:26:37;3.90;;;3.70;;
14688;SDS011;7432;48.728;9.154;2023-04-01T16:29:09;4.07;;;3.87;;
14688;SDS011;7432;48.728;9.154;2023-04-01T16:31:45;4.00;;;3.80;;
14688;SDS011;7432;48.728;9.154;2023-04-01T16:34:17;3.97;;;3.77;;
14688;SDS011;7432;48.728;9.154;2023-04-01T16:36:47;4.20;;;3.93;;
14688;SDS011;7432;48.728;9.154;2023-04-01T16:39:21;3.73;;;3.53;;
14688;SDS011;7432;48.728;9.154;2023-04-01T16:41:57;4.13;;;3.93;;
14688;SDS011;7432;48.728;9.154;2023-04-01T16:44:48;4.63;;;4.33;;
14688;SDS011;7432;48.728;9.154;2023-04-01T16:47:20;4.47;;;4.07;;